VCV91 SVMC-SVMI
Flight info
| Callsign | VCV91 |
|---|---|
| Flight time | 0h 48m |
| Altitude | 33000 |
| Route | ASIBA1 MAU UW52 PBL ALDAK1 |
| Aircraft | E190/M-SDE3GILORVW/S |
Departure
| Time | 2026-05-08 00:34 |
|---|---|
| Airport | La Chinita International Airport (SVMC) |
Arrival
| Time | 2026-05-08 01:23 |
|---|---|
| Airport | Maiquetía Simón Bolívar International Airport (SVMI) |
| Time | Latitude | Longitude | Altitude | Speed | Heading |
|---|---|---|---|---|---|
| 2026-05-08 00:16 | 10.55571 | -71.72525 | 215 ft | 0 kts | 189° |
| 2026-05-08 00:26 | 10.55585 | -71.72522 | 220 ft | 4 kts | 194° |
| 2026-05-08 00:27 | 10.55609 | -71.72513 | 219 ft | 4 kts | 222° |
| 2026-05-08 00:27 | 10.55621 | -71.72494 | 217 ft | 3 kts | 288° |
| 2026-05-08 00:27 | 10.55619 | -71.72490 | 217 ft | 3 kts | 294° |
| 2026-05-08 00:29 | 10.55622 | -71.72497 | 217 ft | 3 kts | 294° |
| 2026-05-08 00:29 | 10.55634 | -71.72527 | 216 ft | 6 kts | 284° |
| 2026-05-08 00:29 | 10.55604 | -71.72564 | 218 ft | 9 kts | 208° |
| 2026-05-08 00:30 | 10.55541 | -71.72594 | 220 ft | 11 kts | 201° |
| 2026-05-08 00:30 | 10.55458 | -71.72624 | 217 ft | 14 kts | 202° |
| 2026-05-08 00:30 | 10.55375 | -71.72670 | 217 ft | 14 kts | 230° |
| 2026-05-08 00:30 | 10.55388 | -71.72764 | 220 ft | 15 kts | 292° |
| 2026-05-08 00:31 | 10.55392 | -71.72863 | 220 ft | 14 kts | 227° |
| 2026-05-08 00:31 | 10.55299 | -71.72911 | 220 ft | 16 kts | 204° |
| 2026-05-08 00:31 | 10.55191 | -71.72957 | 217 ft | 18 kts | 203° |
| 2026-05-08 00:31 | 10.55070 | -71.73009 | 216 ft | 20 kts | 202° |
| 2026-05-08 00:32 | 10.54933 | -71.73067 | 224 ft | 22 kts | 202° |
| 2026-05-08 00:32 | 10.54786 | -71.73130 | 214 ft | 24 kts | 204° |
| 2026-05-08 00:32 | 10.54657 | -71.73226 | 217 ft | 21 kts | 223° |
| 2026-05-08 00:32 | 10.54575 | -71.73329 | 219 ft | 16 kts | 264° |
| 2026-05-08 00:33 | 10.54607 | -71.73401 | 220 ft | 7 kts | 343° |
| 2026-05-08 00:33 | 10.54664 | -71.73383 | 219 ft | 19 kts | 22° |
| 2026-05-08 00:33 | 10.54991 | -71.73245 | 219 ft | 85 kts | 22° |
| 2026-05-08 00:33 | 10.55730 | -71.72937 | 240 ft | 141 kts | 21° |
| 2026-05-08 00:34 | 10.56720 | -71.72537 | 632 ft | 164 kts | 22° |
| 2026-05-08 00:34 | 10.57865 | -71.72100 | 1105 ft | 196 kts | 22° |
| 2026-05-08 00:34 | 10.59224 | -71.71508 | 1750 ft | 217 kts | 25° |
| 2026-05-08 00:34 | 10.60581 | -71.70793 | 2842 ft | 223 kts | 37° |
| 2026-05-08 00:35 | 10.61605 | -71.69499 | 3438 ft | 263 kts | 66° |
| 2026-05-08 00:35 | 10.61897 | -71.67628 | 4536 ft | 271 kts | 83° |
| 2026-05-08 00:35 | 10.62134 | -71.65725 | 5867 ft | 271 kts | 81° |
| 2026-05-08 00:35 | 10.62423 | -71.63831 | 7139 ft | 271 kts | 82° |
| 2026-05-08 00:36 | 10.62709 | -71.61929 | 8281 ft | 274 kts | 82° |
| 2026-05-08 00:36 | 10.63009 | -71.60005 | 9424 ft | 277 kts | 82° |
| 2026-05-08 00:36 | 10.63312 | -71.58042 | 10439 ft | 286 kts | 82° |
| 2026-05-08 00:36 | 10.63602 | -71.55969 | 11112 ft | 305 kts | 83° |
| 2026-05-08 00:37 | 10.63876 | -71.53773 | 11815 ft | 321 kts | 83° |
| 2026-05-08 00:37 | 10.64149 | -71.51470 | 12583 ft | 334 kts | 83° |
| 2026-05-08 00:37 | 10.64419 | -71.49131 | 13545 ft | 340 kts | 83° |
| 2026-05-08 00:38 | 10.65005 | -71.44271 | 15327 ft | 353 kts | 83° |
| 2026-05-08 00:38 | 10.65282 | -71.41767 | 16216 ft | 360 kts | 83° |
| 2026-05-08 00:38 | 10.65567 | -71.39212 | 17069 ft | 366 kts | 83° |
| 2026-05-08 00:38 | 10.65852 | -71.36608 | 17893 ft | 372 kts | 83° |
| 2026-05-08 00:39 | 10.66128 | -71.33970 | 18617 ft | 378 kts | 83° |
| 2026-05-08 00:39 | 10.66400 | -71.31300 | 19321 ft | 381 kts | 83° |
| 2026-05-08 00:39 | 10.66667 | -71.28605 | 20002 ft | 385 kts | 82° |
| 2026-05-08 00:39 | 10.66926 | -71.25910 | 20656 ft | 389 kts | 82° |
| 2026-05-08 00:40 | 10.67183 | -71.23158 | 21313 ft | 392 kts | 82° |
| 2026-05-08 00:40 | 10.67435 | -71.20385 | 21955 ft | 396 kts | 82° |
| 2026-05-08 00:40 | 10.67684 | -71.17585 | 22582 ft | 399 kts | 82° |
| 2026-05-08 00:40 | 10.67928 | -71.14755 | 23171 ft | 403 kts | 82° |
| 2026-05-08 00:41 | 10.68169 | -71.11900 | 23701 ft | 407 kts | 82° |
| 2026-05-08 00:41 | 10.68407 | -71.09012 | 24156 ft | 411 kts | 83° |
| 2026-05-08 00:41 | 10.68642 | -71.06101 | 24595 ft | 415 kts | 83° |
| 2026-05-08 00:41 | 10.68733 | -71.03192 | 25001 ft | 420 kts | 89° |
| 2026-05-08 00:42 | 10.68571 | -71.00205 | 25415 ft | 424 kts | 91° |
| 2026-05-08 00:42 | 10.68380 | -70.97187 | 25805 ft | 428 kts | 91° |
| 2026-05-08 00:42 | 10.68194 | -70.94155 | 26196 ft | 431 kts | 91° |
| 2026-05-08 00:42 | 10.68006 | -70.91091 | 26580 ft | 435 kts | 91° |
| 2026-05-08 00:43 | 10.67819 | -70.88013 | 26957 ft | 438 kts | 91° |
| 2026-05-08 00:43 | 10.67633 | -70.84949 | 27344 ft | 441 kts | 91° |
| 2026-05-08 00:43 | 10.67442 | -70.81824 | 27697 ft | 444 kts | 91° |
| 2026-05-08 00:43 | 10.67248 | -70.78670 | 28070 ft | 448 kts | 91° |
| 2026-05-08 00:44 | 10.67055 | -70.75491 | 28403 ft | 451 kts | 91° |
| 2026-05-08 00:44 | 10.66860 | -70.72293 | 28733 ft | 454 kts | 91° |
| 2026-05-08 00:44 | 10.66664 | -70.69077 | 29112 ft | 455 kts | 91° |
| 2026-05-08 00:44 | 10.66467 | -70.65869 | 29563 ft | 455 kts | 91° |
| 2026-05-08 00:45 | 10.66272 | -70.62692 | 29992 ft | 455 kts | 91° |
| 2026-05-08 00:45 | 10.66074 | -70.59475 | 30339 ft | 455 kts | 91° |
| 2026-05-08 00:45 | 10.65877 | -70.56266 | 30697 ft | 454 kts | 91° |
| 2026-05-08 00:45 | 10.65678 | -70.53054 | 31038 ft | 454 kts | 91° |
| 2026-05-08 00:46 | 10.65479 | -70.49840 | 31392 ft | 454 kts | 91° |
| 2026-05-08 00:46 | 10.65282 | -70.46643 | 31752 ft | 453 kts | 91° |
| 2026-05-08 00:46 | 10.65083 | -70.43445 | 32090 ft | 453 kts | 91° |
| 2026-05-08 00:46 | 10.64883 | -70.40247 | 32415 ft | 453 kts | 91° |
| 2026-05-08 00:47 | 10.64681 | -70.37098 | 32732 ft | 453 kts | 91° |
| 2026-05-08 00:47 | 10.64473 | -70.33921 | 33058 ft | 445 kts | 91° |
| 2026-05-08 00:47 | 10.64268 | -70.30812 | 32985 ft | 433 kts | 91° |
| 2026-05-08 00:48 | 10.63876 | -70.24833 | 32961 ft | 417 kts | 91° |
| 2026-05-08 00:48 | 10.63493 | -70.18955 | 32969 ft | 417 kts | 91° |
| 2026-05-08 00:49 | 10.63108 | -70.13099 | 32972 ft | 418 kts | 91° |
| 2026-05-08 00:49 | 10.62720 | -70.07200 | 32977 ft | 418 kts | 91° |
| 2026-05-08 00:50 | 10.62329 | -70.01298 | 32993 ft | 418 kts | 91° |
| 2026-05-08 00:50 | 10.61938 | -69.95393 | 32975 ft | 418 kts | 91° |
| 2026-05-08 00:51 | 10.61546 | -69.89495 | 32962 ft | 418 kts | 91° |
| 2026-05-08 00:51 | 10.61154 | -69.83609 | 32969 ft | 418 kts | 91° |
| 2026-05-08 00:52 | 10.60761 | -69.77707 | 32968 ft | 418 kts | 91° |
| 2026-05-08 00:52 | 10.60365 | -69.71810 | 32974 ft | 418 kts | 91° |
| 2026-05-08 00:53 | 10.59930 | -69.65912 | 32975 ft | 419 kts | 92° |
| 2026-05-08 00:53 | 10.59464 | -69.60012 | 32984 ft | 419 kts | 92° |
| 2026-05-08 00:54 | 10.59000 | -69.54110 | 32980 ft | 418 kts | 92° |
| 2026-05-08 00:54 | 10.58537 | -69.48218 | 32987 ft | 418 kts | 92° |
| 2026-05-08 00:55 | 10.58078 | -69.42359 | 32989 ft | 418 kts | 92° |
| 2026-05-08 00:55 | 10.57613 | -69.36460 | 32988 ft | 418 kts | 92° |
| 2026-05-08 00:56 | 10.57147 | -69.30559 | 32991 ft | 418 kts | 92° |
| 2026-05-08 00:56 | 10.56681 | -69.24665 | 32991 ft | 419 kts | 92° |
| 2026-05-08 00:57 | 10.56212 | -69.18757 | 32994 ft | 419 kts | 92° |
| 2026-05-08 00:57 | 10.55746 | -69.12891 | 32995 ft | 419 kts | 92° |
| 2026-05-08 00:58 | 10.55276 | -69.06985 | 32997 ft | 419 kts | 92° |
| 2026-05-08 00:58 | 10.54807 | -69.01079 | 32988 ft | 419 kts | 92° |
| 2026-05-08 00:59 | 10.54334 | -68.95166 | 32998 ft | 419 kts | 92° |
| 2026-05-08 00:59 | 10.53937 | -68.89255 | 32989 ft | 419 kts | 91° |
| 2026-05-08 01:00 | 10.53546 | -68.83334 | 32933 ft | 421 kts | 92° |
| 2026-05-08 01:00 | 10.53348 | -68.80339 | 32540 ft | 425 kts | 92° |
| 2026-05-08 01:00 | 10.53150 | -68.77377 | 32247 ft | 425 kts | 92° |
| 2026-05-08 01:00 | 10.52948 | -68.74353 | 31602 ft | 430 kts | 92° |
| 2026-05-08 01:01 | 10.52745 | -68.71316 | 31023 ft | 431 kts | 92° |
| 2026-05-08 01:01 | 10.52540 | -68.68270 | 30431 ft | 432 kts | 92° |
| 2026-05-08 01:01 | 10.52335 | -68.65220 | 29819 ft | 433 kts | 92° |
| 2026-05-08 01:01 | 10.52130 | -68.62177 | 29289 ft | 431 kts | 92° |
| 2026-05-08 01:02 | 10.51924 | -68.59131 | 28688 ft | 431 kts | 92° |
| 2026-05-08 01:02 | 10.51719 | -68.56096 | 28136 ft | 429 kts | 92° |
| 2026-05-08 01:02 | 10.51517 | -68.53118 | 27568 ft | 426 kts | 92° |
| 2026-05-08 01:02 | 10.51314 | -68.50127 | 27009 ft | 421 kts | 92° |
| 2026-05-08 01:03 | 10.51113 | -68.47172 | 26452 ft | 417 kts | 92° |
| 2026-05-08 01:03 | 10.50915 | -68.44243 | 25895 ft | 412 kts | 92° |
| 2026-05-08 01:03 | 10.50718 | -68.41352 | 25358 ft | 408 kts | 92° |
| 2026-05-08 01:03 | 10.50523 | -68.38488 | 24815 ft | 404 kts | 92° |
| 2026-05-08 01:04 | 10.50330 | -68.35652 | 24281 ft | 400 kts | 93° |
| 2026-05-08 01:04 | 10.50140 | -68.32880 | 23753 ft | 396 kts | 93° |
| 2026-05-08 01:04 | 10.49950 | -68.30095 | 23178 ft | 392 kts | 93° |
| 2026-05-08 01:04 | 10.49761 | -68.27350 | 22701 ft | 385 kts | 93° |
| 2026-05-08 01:05 | 10.49576 | -68.24649 | 22189 ft | 380 kts | 92° |
| 2026-05-08 01:05 | 10.49395 | -68.22011 | 21696 ft | 376 kts | 92° |
| 2026-05-08 01:05 | 10.49214 | -68.19368 | 21203 ft | 373 kts | 92° |
| 2026-05-08 01:05 | 10.49034 | -68.16754 | 20713 ft | 369 kts | 92° |
| 2026-05-08 01:06 | 10.48857 | -68.14165 | 20228 ft | 366 kts | 92° |
| 2026-05-08 01:06 | 10.48680 | -68.11595 | 19738 ft | 362 kts | 93° |
| 2026-05-08 01:06 | 10.48505 | -68.09053 | 19262 ft | 358 kts | 92° |
| 2026-05-08 01:06 | 10.48674 | -68.06555 | 18786 ft | 353 kts | 77° |
| 2026-05-08 01:07 | 10.49241 | -68.04145 | 18329 ft | 349 kts | 75° |
| 2026-05-08 01:07 | 10.49827 | -68.01768 | 17826 ft | 344 kts | 75° |
| 2026-05-08 01:07 | 10.50394 | -67.99429 | 17394 ft | 339 kts | 75° |
| 2026-05-08 01:07 | 10.50952 | -67.97113 | 16945 ft | 335 kts | 75° |
| 2026-05-08 01:08 | 10.51495 | -67.94847 | 16508 ft | 333 kts | 76° |
| 2026-05-08 01:08 | 10.52039 | -67.92570 | 16072 ft | 330 kts | 76° |
| 2026-05-08 01:08 | 10.52577 | -67.90310 | 15640 ft | 328 kts | 76° |
| 2026-05-08 01:08 | 10.53110 | -67.88068 | 15209 ft | 325 kts | 76° |
| 2026-05-08 01:09 | 10.53637 | -67.85844 | 14772 ft | 322 kts | 76° |
| 2026-05-08 01:09 | 10.54158 | -67.83638 | 14348 ft | 319 kts | 76° |
| 2026-05-08 01:09 | 10.54673 | -67.81456 | 13927 ft | 315 kts | 76° |
| 2026-05-08 01:09 | 10.55177 | -67.79298 | 13487 ft | 312 kts | 76° |
| 2026-05-08 01:10 | 10.55679 | -67.77160 | 13101 ft | 309 kts | 76° |
| 2026-05-08 01:10 | 10.56168 | -67.75077 | 12685 ft | 304 kts | 76° |
| 2026-05-08 01:10 | 10.56656 | -67.73004 | 12275 ft | 299 kts | 76° |
| 2026-05-08 01:10 | 10.57137 | -67.70964 | 11887 ft | 294 kts | 76° |
| 2026-05-08 01:11 | 10.57453 | -67.69625 | 11627 ft | 292 kts | 77° |
| 2026-05-08 01:11 | 10.57925 | -67.67625 | 11245 ft | 290 kts | 77° |
| 2026-05-08 01:11 | 10.58310 | -67.65622 | 10866 ft | 288 kts | 85° |
| 2026-05-08 01:11 | 10.58361 | -67.62936 | 10367 ft | 287 kts | 89° |
| 2026-05-08 01:12 | 10.58402 | -67.60909 | 9989 ft | 286 kts | 89° |
| 2026-05-08 01:12 | 10.58440 | -67.59545 | 9720 ft | 286 kts | 89° |
| 2026-05-08 01:12 | 10.58500 | -67.57529 | 9348 ft | 283 kts | 89° |
| 2026-05-08 01:12 | 10.58561 | -67.55558 | 8988 ft | 281 kts | 89° |
| 2026-05-08 01:13 | 10.58625 | -67.53575 | 8614 ft | 281 kts | 88° |
| 2026-05-08 01:13 | 10.58691 | -67.51590 | 8247 ft | 280 kts | 88° |
| 2026-05-08 01:13 | 10.58756 | -67.49609 | 7872 ft | 280 kts | 88° |
| 2026-05-08 01:13 | 10.58823 | -67.47633 | 7501 ft | 278 kts | 88° |
| 2026-05-08 01:14 | 10.58889 | -67.45675 | 7129 ft | 275 kts | 88° |
| 2026-05-08 01:14 | 10.58955 | -67.43741 | 6767 ft | 272 kts | 88° |
| 2026-05-08 01:14 | 10.59018 | -67.41850 | 6405 ft | 270 kts | 88° |
| 2026-05-08 01:14 | 10.59083 | -67.39955 | 6057 ft | 267 kts | 88° |
| 2026-05-08 01:15 | 10.59147 | -67.38076 | 5713 ft | 264 kts | 88° |
| 2026-05-08 01:15 | 10.59210 | -67.36218 | 5361 ft | 261 kts | 88° |
| 2026-05-08 01:15 | 10.59272 | -67.34375 | 5020 ft | 259 kts | 88° |
| 2026-05-08 01:15 | 10.59334 | -67.32549 | 4670 ft | 257 kts | 88° |
| 2026-05-08 01:16 | 10.59414 | -67.30744 | 4310 ft | 252 kts | 87° |
| 2026-05-08 01:16 | 10.59481 | -67.28993 | 3953 ft | 243 kts | 88° |
| 2026-05-08 01:16 | 10.59537 | -67.27326 | 3612 ft | 235 kts | 88° |
| 2026-05-08 01:16 | 10.59592 | -67.25680 | 3322 ft | 230 kts | 88° |
| 2026-05-08 01:17 | 10.59644 | -67.24091 | 3077 ft | 219 kts | 88° |
| 2026-05-08 01:17 | 10.59692 | -67.22580 | 2799 ft | 211 kts | 88° |
| 2026-05-08 01:17 | 10.59733 | -67.21114 | 2514 ft | 205 kts | 89° |
| 2026-05-08 01:17 | 10.59766 | -67.19699 | 2274 ft | 193 kts | 89° |
| 2026-05-08 01:18 | 10.59826 | -67.18382 | 2027 ft | 179 kts | 89° |
| 2026-05-08 01:18 | 10.59866 | -67.17193 | 1936 ft | 157 kts | 90° |
| 2026-05-08 01:18 | 10.59901 | -67.16133 | 1852 ft | 146 kts | 90° |
| 2026-05-08 01:18 | 10.59933 | -67.15113 | 1838 ft | 142 kts | 91° |
| 2026-05-08 01:19 | 10.59958 | -67.14147 | 2228 ft | 137 kts | 90° |
| 2026-05-08 01:19 | 10.60035 | -67.13216 | 2396 ft | 131 kts | 85° |
| 2026-05-08 01:19 | 10.60110 | -67.12280 | 2498 ft | 135 kts | 86° |
| 2026-05-08 01:19 | 10.60179 | -67.11307 | 2334 ft | 137 kts | 86° |
| 2026-05-08 01:20 | 10.60224 | -67.10347 | 2209 ft | 137 kts | 91° |
| 2026-05-08 01:20 | 10.60251 | -67.09378 | 2065 ft | 137 kts | 91° |
| 2026-05-08 01:20 | 10.60240 | -67.08411 | 1934 ft | 137 kts | 94° |
| 2026-05-08 01:20 | 10.60254 | -67.07423 | 1698 ft | 139 kts | 89° |
| 2026-05-08 01:21 | 10.60275 | -67.06456 | 1541 ft | 136 kts | 91° |
| 2026-05-08 01:21 | 10.60302 | -67.05497 | 1334 ft | 137 kts | 91° |
| 2026-05-08 01:21 | 10.60284 | -67.04517 | 1058 ft | 139 kts | 90° |
| 2026-05-08 01:21 | 10.60339 | -67.03548 | 828 ft | 136 kts | 90° |
| 2026-05-08 01:22 | 10.60346 | -67.02601 | 537 ft | 132 kts | 93° |
| 2026-05-08 01:22 | 10.60371 | -67.01702 | 358 ft | 123 kts | 92° |
| 2026-05-08 01:22 | 10.60399 | -67.00857 | 238 ft | 110 kts | 92° |
| 2026-05-08 01:22 | 10.60413 | -67.00227 | 225 ft | 65 kts | 88° |
| 2026-05-08 01:23 | 10.60424 | -66.99843 | 214 ft | 41 kts | 88° |
| 2026-05-08 01:23 | 10.60377 | -66.99677 | 210 ft | 23 kts | 171° |
| 2026-05-08 01:23 | 10.60235 | -66.99670 | 203 ft | 15 kts | 178° |
| 2026-05-08 01:23 | 10.60148 | -66.99703 | 207 ft | 13 kts | 242° |
| 2026-05-08 01:24 | 10.60138 | -66.99784 | 211 ft | 11 kts | 267° |
| 2026-05-08 01:24 | 10.60135 | -66.99859 | 215 ft | 10 kts | 268° |
| 2026-05-08 01:24 | 10.60103 | -66.99910 | 217 ft | 9 kts | 203° |
| 2026-05-08 01:24 | 10.60037 | -66.99914 | 219 ft | 10 kts | 179° |
| 2026-05-08 01:25 | 10.59963 | -66.99913 | 218 ft | 10 kts | 180° |
| 2026-05-08 01:25 | 10.59914 | -66.99954 | 219 ft | 11 kts | 259° |
| 2026-05-08 01:25 | 10.59912 | -67.00031 | 219 ft | 10 kts | 268° |
| 2026-05-08 01:25 | 10.59888 | -67.00075 | 220 ft | 6 kts | 195° |
| 2026-05-08 01:26 | 10.59853 | -67.00078 | 220 ft | 3 kts | 180° |
| 2026-05-08 01:26 | 10.59838 | -67.00077 | 220 ft | 1 kts | 179° |
| 2026-05-08 01:26 | 10.59833 | -67.00077 | 220 ft | 0 kts | 179° |